createdAt,value
2022-09-16T00:00:48.408Z,13.20
2022-09-16T00:03:17.243Z,13.20
2022-09-16T00:05:46.126Z,13.20
2022-09-16T00:08:14.465Z,13.20
2022-09-16T00:10:41.953Z,13.20
2022-09-16T00:13:08.654Z,13.00
2022-09-16T00:15:35.308Z,13.00
2022-09-16T00:18:02.100Z,13.00
2022-09-16T00:20:28.941Z,13.00
2022-09-16T00:22:55.578Z,13.00
2022-09-16T00:25:22.225Z,13.00
2022-09-16T00:27:49.669Z,12.80
2022-09-16T00:30:16.687Z,12.60
2022-09-16T00:32:43.936Z,12.70
2022-09-16T00:35:10.608Z,12.70
2022-09-16T00:37:37.254Z,12.80
2022-09-16T00:40:04.518Z,12.90
2022-09-16T00:42:31.294Z,12.90
2022-09-16T00:45:02.822Z,12.90
2022-09-16T00:47:46.824Z,12.90
2022-09-16T00:50:38.892Z,13.00
2022-09-16T00:53:08.711Z,12.90
2022-09-16T00:55:38.270Z,12.90
2022-09-16T00:58:17.665Z,12.90
2022-09-16T01:00:44.416Z,12.80
2022-09-16T01:03:11.158Z,12.80
2022-09-16T01:05:38.679Z,12.70
2022-09-16T01:08:05.608Z,12.80
2022-09-16T01:10:32.342Z,12.80
2022-09-16T01:13:08.235Z,12.80
2022-09-16T01:15:43.692Z,12.80
2022-09-16T01:18:23.359Z,12.80
2022-09-16T01:21:12.659Z,12.80
2022-09-16T01:24:01.399Z,12.90
2022-09-16T01:26:57.858Z,12.90
2022-09-16T01:30:03.205Z,12.80
2022-09-16T01:32:38.721Z,12.60
2022-09-16T01:35:18.069Z,12.60
2022-09-16T01:37:56.506Z,12.50
2022-09-16T01:40:31.612Z,12.40
2022-09-16T01:43:04.355Z,12.40
2022-09-16T01:45:43.897Z,12.40
2022-09-16T01:48:19.787Z,12.30
2022-09-16T01:50:55.042Z,12.20
2022-09-16T01:53:43.914Z,12.20
2022-09-16T01:56:26.315Z,12.20
2022-09-16T01:59:08.395Z,12.30
2022-09-16T02:01:45.899Z,12.30
2022-09-16T02:04:36.120Z,12.30
2022-09-16T02:07:05.729Z,12.30
2022-09-16T02:09:37.651Z,12.30
2022-09-16T02:12:10.251Z,12.30
2022-09-16T02:14:40.041Z,12.30
2022-09-16T02:17:22.306Z,12.30
2022-09-16T02:19:57.684Z,12.40
2022-09-16T02:22:32.289Z,12.50
2022-09-16T02:25:01.151Z,12.40
2022-09-16T02:27:30.188Z,12.50
2022-09-16T02:30:02.048Z,12.60
2022-09-16T02:32:32.246Z,12.60
2022-09-16T02:35:00.395Z,12.60
2022-09-16T02:37:33.916Z,12.70
2022-09-16T02:40:06.189Z,12.70
2022-09-16T02:42:34.163Z,12.60
2022-09-16T02:45:03.136Z,12.60
2022-09-16T02:47:40.428Z,12.70
2022-09-16T02:50:17.533Z,12.70
2022-09-16T02:52:57.205Z,12.70
2022-09-16T02:55:41.483Z,12.60
2022-09-16T02:58:09.823Z,12.50
2022-09-16T03:00:40.574Z,12.50
2022-09-16T03:03:08.544Z,12.50
2022-09-16T03:05:35.357Z,12.40
2022-09-16T03:08:04.069Z,12.40
2022-09-16T03:10:39.695Z,12.30
2022-09-16T03:13:16.109Z,12.30
2022-09-16T03:15:55.643Z,12.20
2022-09-16T03:18:41.001Z,12.20
2022-09-16T03:21:28.024Z,12.10
2022-09-16T03:24:10.301Z,12.10
2022-09-16T03:27:07.990Z,12.20
2022-09-16T03:29:45.779Z,12.10
2022-09-16T03:32:21.383Z,12.20
2022-09-16T03:35:20.394Z,12.20
2022-09-16T03:37:47.710Z,12.30
2022-09-16T03:40:17.309Z,12.40
2022-09-16T03:42:44.573Z,12.40
2022-09-16T03:45:20.461Z,12.40
2022-09-16T03:47:49.513Z,12.40
2022-09-16T03:50:17.617Z,12.30
2022-09-16T03:52:44.562Z,12.30
2022-09-16T03:55:11.374Z,12.30
2022-09-16T03:57:38.593Z,12.20
2022-09-16T04:00:07.409Z,12.20
2022-09-16T04:02:40.116Z,12.30
2022-09-16T04:05:08.824Z,12.20
2022-09-16T04:07:36.552Z,12.30
2022-09-16T04:10:05.014Z,12.20
2022-09-16T04:12:31.782Z,12.20
2022-09-16T04:15:00.756Z,12.30
2022-09-16T04:17:27.732Z,12.30
2022-09-16T04:19:54.463Z,12.30
2022-09-16T04:22:21.130Z,12.20
2022-09-16T04:24:47.956Z,12.20
2022-09-16T04:27:14.798Z,12.20
2022-09-16T04:29:41.525Z,12.20
2022-09-16T04:32:08.241Z,12.10
2022-09-16T04:34:34.966Z,12.10
2022-09-16T04:37:01.746Z,12.20
2022-09-16T04:39:28.392Z,12.30
2022-09-16T04:41:55.091Z,12.30
2022-09-16T04:44:21.814Z,12.30
2022-09-16T04:46:48.599Z,12.30
2022-09-16T04:49:15.433Z,12.30
2022-09-16T04:51:42.129Z,12.30
2022-09-16T04:54:09.468Z,12.30
2022-09-16T04:56:36.143Z,12.30
2022-09-16T04:59:04.841Z,12.40
2022-09-16T05:01:34.611Z,12.40
2022-09-16T05:04:03.479Z,12.40
2022-09-16T05:06:35.609Z,12.40
2022-09-16T05:09:03.367Z,12.40
2022-09-16T05:11:33.827Z,12.40
2022-09-16T05:14:02.339Z,12.40
2022-09-16T05:16:30.012Z,12.40
2022-09-16T05:18:58.835Z,12.40
2022-09-16T05:21:27.623Z,12.40
2022-09-16T05:23:56.076Z,12.40
2022-09-16T05:26:25.513Z,12.40
2022-09-16T05:28:53.009Z,12.40
2022-09-16T05:31:22.422Z,12.30
2022-09-16T05:34:00.687Z,12.40
2022-09-16T05:36:30.384Z,12.50
2022-09-16T05:39:21.561Z,12.60
2022-09-16T05:41:44.937Z,12.50
2022-09-16T05:44:11.659Z,12.60
2022-09-16T05:46:40.527Z,12.70
2022-09-16T05:49:08.541Z,12.60
2022-09-16T05:51:36.621Z,12.70
2022-09-16T05:54:03.326Z,12.70
2022-09-16T05:56:31.276Z,12.70
2022-09-16T05:58:59.949Z,12.70
2022-09-16T06:01:29.710Z,12.70
2022-09-16T06:03:56.692Z,12.80
2022-09-16T06:06:32.631Z,12.70
2022-09-16T06:09:08.121Z,12.80
2022-09-16T06:11:38.373Z,12.70
2022-09-16T06:14:06.100Z,12.80
2022-09-16T06:16:33.402Z,12.80
2022-09-16T06:19:02.659Z,12.80
2022-09-16T06:21:30.092Z,12.80
2022-09-16T06:23:57.493Z,12.90
2022-09-16T06:26:26.234Z,12.90
2022-09-16T06:28:53.268Z,13.00
2022-09-16T06:31:25.994Z,13.00
2022-09-16T06:33:53.735Z,13.10
2022-09-16T06:36:45.052Z,13.10
2022-09-16T06:39:13.853Z,13.10
2022-09-16T06:41:40.796Z,13.10
2022-09-16T06:44:07.621Z,13.00
2022-09-16T06:46:34.289Z,13.00
2022-09-16T06:49:05.301Z,13.00
2022-09-16T06:51:33.184Z,13.10
2022-09-16T06:54:05.613Z,13.20
2022-09-16T06:56:34.072Z,13.30
2022-09-16T06:59:00.878Z,13.40
2022-09-16T07:01:31.678Z,13.40
2022-09-16T07:04:01.908Z,13.50
2022-09-16T07:06:57.356Z,13.50
2022-09-16T07:09:17.177Z,13.50
2022-09-16T07:11:43.924Z,13.60
2022-09-16T07:14:10.872Z,13.60
2022-09-16T07:16:37.630Z,13.60
2022-09-16T07:19:05.278Z,13.60
2022-09-16T07:21:32.170Z,13.50
2022-09-16T07:24:01.289Z,13.50
2022-09-16T07:26:33.653Z,13.60
2022-09-16T07:29:02.413Z,13.50
2022-09-16T07:31:34.842Z,13.50
2022-09-16T07:34:04.407Z,13.60
2022-09-16T07:36:45.478Z,13.50
2022-09-16T07:39:14.079Z,13.50
2022-09-16T07:41:43.906Z,13.50
2022-09-16T07:44:13.536Z,13.60
2022-09-16T07:46:40.397Z,13.60
2022-09-16T07:49:10.773Z,13.60
2022-09-16T07:51:37.553Z,13.50
2022-09-16T07:54:08.755Z,13.50
2022-09-16T07:56:37.369Z,13.50
2022-09-16T07:59:06.627Z,13.50
2022-09-16T08:01:33.845Z,13.50
2022-09-16T08:04:01.530Z,13.50
2022-09-16T08:06:30.603Z,13.50
2022-09-16T08:09:05.765Z,13.50
2022-09-16T08:11:37.267Z,13.30
2022-09-16T08:14:03.986Z,13.20
2022-09-16T08:16:30.652Z,13.20
2022-09-16T08:18:58.660Z,13.20
2022-09-16T08:21:27.974Z,13.20
2022-09-16T08:23:57.249Z,13.10
2022-09-16T08:26:25.067Z,13.00
2022-09-16T08:29:07.705Z,13.00
2022-09-16T08:31:35.538Z,13.00
2022-09-16T08:34:02.258Z,13.00
2022-09-16T08:36:29.032Z,13.00
2022-09-16T08:38:56.678Z,13.00
2022-09-16T08:41:39.633Z,13.00
2022-09-16T08:44:06.636Z,13.00
2022-09-16T08:46:59.556Z,13.00
2022-09-16T08:49:43.896Z,13.00
2022-09-16T08:52:32.874Z,12.90
2022-09-16T08:55:05.017Z,12.90
2022-09-16T08:57:39.729Z,12.80
2022-09-16T09:00:18.077Z,12.80
2022-09-16T09:03:25.870Z,12.80
2022-09-16T09:05:55.444Z,12.80
2022-09-16T09:08:34.096Z,12.70
2022-09-16T09:11:24.676Z,12.60
2022-09-16T09:14:18.557Z,12.40
2022-09-16T09:17:03.350Z,12.50
2022-09-16T09:19:35.846Z,12.50
2022-09-16T09:22:27.162Z,12.40
2022-09-16T09:25:16.037Z,12.40
2022-09-16T09:28:10.080Z,12.30
2022-09-16T09:30:43.501Z,12.40
2022-09-16T09:33:47.086Z,12.40
2022-09-16T09:36:19.863Z,12.50
2022-09-16T09:38:52.422Z,12.70
2022-09-16T09:41:19.061Z,13.00
2022-09-16T09:44:07.704Z,13.00
2022-09-16T09:46:40.199Z,13.10
2022-09-16T09:49:43.856Z,13.10
2022-09-16T09:52:16.693Z,13.30
2022-09-16T09:54:49.526Z,13.40
2022-09-16T09:57:37.993Z,13.60
2022-09-16T10:00:13.785Z,13.70
2022-09-16T10:02:47.426Z,13.70
2022-09-16T10:05:25.138Z,13.50
2022-09-16T10:07:55.658Z,13.70
2022-09-16T10:10:24.853Z,13.80
2022-09-16T10:12:52.497Z,13.90
2022-09-16T10:15:31.720Z,14.10
2022-09-16T10:18:01.726Z,14.40
2022-09-16T10:20:35.141Z,14.30
2022-09-16T10:23:20.462Z,14.30
2022-09-16T10:25:47.135Z,14.40
2022-09-16T10:28:26.461Z,14.70
2022-09-16T10:30:56.423Z,14.80
2022-09-16T10:33:36.207Z,15.00
2022-09-16T10:36:08.120Z,15.00
2022-09-16T10:38:43.652Z,15.00
2022-09-16T10:41:18.003Z,14.80
2022-09-16T10:43:56.711Z,14.70
2022-09-16T10:46:32.060Z,14.30
2022-09-16T10:49:09.832Z,14.10
2022-09-16T10:51:36.566Z,13.90
2022-09-16T10:54:06.058Z,13.60
2022-09-16T10:56:35.266Z,13.50
2022-09-16T10:59:12.666Z,13.50
2022-09-16T11:01:58.465Z,13.50
2022-09-16T11:04:31.094Z,13.40
2022-09-16T11:07:13.151Z,13.50
2022-09-16T11:10:03.625Z,13.70
2022-09-16T11:12:42.279Z,13.90
2022-09-16T11:15:17.872Z,13.90
2022-09-16T11:17:59.436Z,14.00
2022-09-16T11:20:34.796Z,14.30
2022-09-16T11:23:16.333Z,14.60
2022-09-16T11:25:55.641Z,14.80
2022-09-16T11:28:40.373Z,15.20
2022-09-16T11:31:40.537Z,15.40
2022-09-16T11:34:23.841Z,15.60
2022-09-16T11:37:18.374Z,15.60
2022-09-16T11:40:04.147Z,15.50
2022-09-16T11:42:55.489Z,15.30
2022-09-16T11:45:31.741Z,15.20
2022-09-16T11:48:25.202Z,14.10
2022-09-16T11:50:54.778Z,12.40
2022-09-16T11:53:42.135Z,11.80
2022-09-16T11:56:18.860Z,11.50
2022-09-16T11:59:04.941Z,11.40
2022-09-16T12:01:39.609Z,11.30
2022-09-16T12:04:25.457Z,11.30
2022-09-16T12:07:03.747Z,11.20
2022-09-16T12:09:42.392Z,11.10
2022-09-16T12:12:19.977Z,11.20
2022-09-16T12:15:18.882Z,11.20
2022-09-16T12:17:53.747Z,11.20
2022-09-16T12:20:29.353Z,11.30
2022-09-16T12:23:06.473Z,11.40
2022-09-16T12:25:46.085Z,11.40
2022-09-16T12:28:38.745Z,11.50
2022-09-16T12:31:23.780Z,11.40
2022-09-16T12:34:25.597Z,11.50
2022-09-16T12:37:06.366Z,11.30
2022-09-16T12:39:33.039Z,11.30
2022-09-16T12:42:36.860Z,11.20
2022-09-16T12:45:25.468Z,11.10
2022-09-16T12:48:36.313Z,11.10
2022-09-16T12:51:21.153Z,11.00
2022-09-16T12:54:02.426Z,11.00
2022-09-16T12:56:32.193Z,10.90
2022-09-16T12:59:05.801Z,11.00
2022-09-16T13:01:59.612Z,11.00
2022-09-16T13:04:32.924Z,10.90
2022-09-16T13:07:01.898Z,10.70
2022-09-16T13:09:40.613Z,10.70
2022-09-16T13:12:39.309Z,10.70
2022-09-16T13:15:31.327Z,10.60
2022-09-16T13:18:19.225Z,10.70
2022-09-16T13:20:58.545Z,10.60
2022-09-16T13:23:33.969Z,10.70
2022-09-16T13:26:07.981Z,10.70
2022-09-16T13:28:38.093Z,10.70
2022-09-16T13:31:14.283Z,10.60
2022-09-16T13:33:57.224Z,10.50
2022-09-16T13:36:23.959Z,10.60
2022-09-16T13:38:53.108Z,10.40
2022-09-16T13:41:48.985Z,10.40
2022-09-16T13:44:45.079Z,10.40
2022-09-16T13:47:12.095Z,10.40
2022-09-16T13:49:52.405Z,10.50
2022-09-16T13:52:28.791Z,10.50
2022-09-16T13:55:13.241Z,10.60
2022-09-16T13:57:52.842Z,10.50
2022-09-16T14:00:32.209Z,10.50
2022-09-16T14:03:36.130Z,10.60
2022-09-16T14:06:34.844Z,10.60
2022-09-16T14:09:19.642Z,10.60
2022-09-16T14:12:13.981Z,10.60
2022-09-16T14:14:47.342Z,10.70
2022-09-16T14:17:40.377Z,10.60
2022-09-16T14:20:15.920Z,10.70
2022-09-16T14:22:44.526Z,10.80
2022-09-16T14:25:35.632Z,10.80
2022-09-16T14:28:28.802Z,10.90
2022-09-16T14:30:58.462Z,10.90
2022-09-16T14:33:37.847Z,11.00
2022-09-16T14:36:32.648Z,11.10
2022-09-16T14:39:02.422Z,11.10
2022-09-16T14:41:34.935Z,11.10
2022-09-16T14:44:20.240Z,11.10
2022-09-16T14:47:04.631Z,11.00
2022-09-16T14:49:37.839Z,11.00
2022-09-16T14:52:04.768Z,11.00
2022-09-16T14:54:32.197Z,11.00
2022-09-16T14:57:03.201Z,10.90
2022-09-16T14:59:37.567Z,11.00
2022-09-16T15:02:26.090Z,11.10
2022-09-16T15:05:00.084Z,10.80
2022-09-16T15:07:34.359Z,10.80
2022-09-16T15:10:18.615Z,10.70
2022-09-16T15:12:53.439Z,10.70
2022-09-16T15:15:25.269Z,10.80
2022-09-16T15:18:12.032Z,10.80
2022-09-16T15:20:40.949Z,10.80
2022-09-16T15:23:20.462Z,11.00
2022-09-16T15:25:59.540Z,11.00
2022-09-16T15:28:26.373Z,11.00
2022-09-16T15:30:55.332Z,11.10
2022-09-16T15:33:33.795Z,11.00
2022-09-16T15:36:01.919Z,11.00
2022-09-16T15:38:29.496Z,11.10
2022-09-16T15:41:11.826Z,11.00
2022-09-16T15:43:41.898Z,10.90
2022-09-16T15:46:23.228Z,10.90
2022-09-16T15:48:55.509Z,10.80
2022-09-16T15:51:51.307Z,10.90
2022-09-16T15:54:31.143Z,10.90
2022-09-16T15:57:03.109Z,10.90
2022-09-16T15:59:35.764Z,11.00
2022-09-16T16:02:05.587Z,11.00
2022-09-16T16:04:33.997Z,11.00
2022-09-16T16:07:05.892Z,11.00
2022-09-16T16:09:36.741Z,11.00
2022-09-16T16:12:11.217Z,10.90
2022-09-16T16:14:39.972Z,11.00
2022-09-16T16:17:13.192Z,10.90
2022-09-16T16:19:42.542Z,10.90
2022-09-16T16:22:09.844Z,10.80
2022-09-16T16:24:37.224Z,10.80
2022-09-16T16:27:05.082Z,10.90
2022-09-16T16:29:32.127Z,10.80
2022-09-16T16:32:03.475Z,10.90
2022-09-16T16:34:44.193Z,10.90
2022-09-16T16:37:33.710Z,10.90
2022-09-16T16:40:02.259Z,10.90
2022-09-16T16:42:29.398Z,10.90
2022-09-16T16:44:56.662Z,11.00
2022-09-16T16:47:24.028Z,10.90
2022-09-16T16:49:51.708Z,10.90
2022-09-16T16:52:18.810Z,10.90
2022-09-16T16:54:46.526Z,10.80
2022-09-16T16:57:13.508Z,10.70
2022-09-16T16:59:40.222Z,10.60
2022-09-16T17:02:06.973Z,10.60
2022-09-16T17:04:33.649Z,10.60
2022-09-16T17:07:24.064Z,10.60
2022-09-16T17:09:49.342Z,10.70
2022-09-16T17:12:18.023Z,10.60
2022-09-16T17:14:44.769Z,10.50
2022-09-16T17:17:11.453Z,10.50
2022-09-16T17:19:38.146Z,10.50
2022-09-16T17:22:04.995Z,10.50
2022-09-16T17:24:31.644Z,10.50
2022-09-16T17:26:58.352Z,10.50
2022-09-16T17:29:25.044Z,10.50
2022-09-16T17:31:54.198Z,10.50
2022-09-16T17:34:21.008Z,10.60
2022-09-16T17:36:47.831Z,10.60
2022-09-16T17:39:17.792Z,10.70
2022-09-16T17:41:45.860Z,10.60
2022-09-16T17:44:14.185Z,10.60
2022-09-16T17:46:42.346Z,10.50
2022-09-16T17:49:15.235Z,10.60
2022-09-16T17:51:41.949Z,10.60
2022-09-16T17:54:09.129Z,10.50
2022-09-16T17:56:36.241Z,10.60
2022-09-16T17:59:03.261Z,10.60
2022-09-16T18:01:33.037Z,10.60
2022-09-16T18:03:59.981Z,10.50
2022-09-16T18:06:32.377Z,10.50
2022-09-16T18:09:07.211Z,10.60
2022-09-16T18:11:35.135Z,10.60
2022-09-16T18:14:04.314Z,10.70
2022-09-16T18:16:31.301Z,10.70
2022-09-16T18:19:00.131Z,10.70
2022-09-16T18:21:29.379Z,10.70
2022-09-16T18:23:58.785Z,10.70
2022-09-16T18:26:26.528Z,10.70
2022-09-16T18:29:10.854Z,10.60
2022-09-16T18:31:40.888Z,10.50
2022-09-16T18:34:07.839Z,10.60
2022-09-16T18:36:36.777Z,10.50
2022-09-16T18:39:05.155Z,10.50
2022-09-16T18:41:36.280Z,10.50
2022-09-16T18:44:07.576Z,10.40
2022-09-16T18:46:36.661Z,10.30
2022-09-16T18:49:04.111Z,10.30
2022-09-16T18:51:33.438Z,10.30
2022-09-16T18:54:03.077Z,10.20
2022-09-16T18:56:34.553Z,10.20
2022-09-16T18:59:21.168Z,10.20
2022-09-16T19:01:50.650Z,10.20
2022-09-16T19:04:20.269Z,10.30
2022-09-16T19:06:49.625Z,10.40
2022-09-16T19:09:19.117Z,10.40
2022-09-16T19:11:45.867Z,10.40
2022-09-16T19:14:14.231Z,10.40
2022-09-16T19:16:43.156Z,10.40
2022-09-16T19:19:11.715Z,10.40
2022-09-16T19:21:38.964Z,10.50
2022-09-16T19:24:08.362Z,10.50
2022-09-16T19:26:37.408Z,10.40
2022-09-16T19:29:06.696Z,10.40
2022-09-16T19:31:34.990Z,10.40
2022-09-16T19:34:01.902Z,10.30
2022-09-16T19:36:30.783Z,10.20
2022-09-16T19:38:59.101Z,10.00
2022-09-16T19:41:29.052Z,10.00
2022-09-16T19:43:58.180Z,9.90
2022-09-16T19:46:25.610Z,10.00
2022-09-16T19:48:52.824Z,10.00
2022-09-16T19:51:22.645Z,10.00
2022-09-16T19:53:50.075Z,9.90
2022-09-16T19:56:21.252Z,9.90
2022-09-16T19:58:49.210Z,9.80
2022-09-16T20:01:24.620Z,9.80
2022-09-16T20:03:52.376Z,9.80
2022-09-16T20:06:22.572Z,9.70
2022-09-16T20:08:53.518Z,9.80
2022-09-16T20:11:22.901Z,9.80
2022-09-16T20:13:55.167Z,9.70
2022-09-16T20:16:24.223Z,9.70
2022-09-16T20:18:51.196Z,9.80
2022-09-16T20:21:20.682Z,9.80
2022-09-16T20:23:47.988Z,9.70
2022-09-16T20:26:19.531Z,9.60
2022-09-16T20:28:56.197Z,9.50
2022-09-16T20:31:25.911Z,9.50
2022-09-16T20:33:53.657Z,9.40
2022-09-16T20:36:23.220Z,9.50
2022-09-16T20:38:51.190Z,9.60
2022-09-16T20:41:20.805Z,9.60
2022-09-16T20:43:47.926Z,9.50
2022-09-16T20:46:31.855Z,9.50
2022-09-16T20:49:00.880Z,9.50
2022-09-16T20:51:33.442Z,9.50
2022-09-16T20:54:06.351Z,9.40
2022-09-16T20:56:38.384Z,9.40
2022-09-16T20:59:10.438Z,9.40
2022-09-16T21:01:38.847Z,9.30
2022-09-16T21:04:14.205Z,9.30
2022-09-16T21:06:41.358Z,9.30
2022-09-16T21:09:11.377Z,9.40
2022-09-16T21:11:43.544Z,9.40
2022-09-16T21:14:12.294Z,9.40
2022-09-16T21:16:39.367Z,9.30
2022-09-16T21:19:13.563Z,9.30
2022-09-16T21:21:44.297Z,9.40
2022-09-16T21:24:11.502Z,9.30
2022-09-16T21:26:39.275Z,9.40
2022-09-16T21:29:10.822Z,9.30
2022-09-16T21:31:39.211Z,9.10
2022-09-16T21:34:07.080Z,9.10
2022-09-16T21:36:35.278Z,9.10
2022-09-16T21:39:02.152Z,9.10
2022-09-16T21:41:29.001Z,9.10
2022-09-16T21:43:57.360Z,9.10
2022-09-16T21:46:26.682Z,9.00
2022-09-16T21:48:58.183Z,9.10
2022-09-16T21:51:24.983Z,9.10
2022-09-16T21:53:51.800Z,9.10
2022-09-16T21:56:23.487Z,9.10
2022-09-16T21:58:54.345Z,9.10
2022-09-16T22:01:32.819Z,9.10
2022-09-16T22:04:02.516Z,9.00
2022-09-16T22:06:29.902Z,8.80
2022-09-16T22:08:58.908Z,8.80
2022-09-16T22:11:27.402Z,8.90
2022-09-16T22:13:55.769Z,8.90
2022-09-16T22:16:27.111Z,8.80
2022-09-16T22:19:01.841Z,8.70
2022-09-16T22:21:31.554Z,8.80
2022-09-16T22:23:59.833Z,8.80
2022-09-16T22:26:27.537Z,8.80
2022-09-16T22:28:54.746Z,8.80
2022-09-16T22:31:23.920Z,8.80
2022-09-16T22:33:52.708Z,8.80
2022-09-16T22:36:21.685Z,8.80
2022-09-16T22:38:50.927Z,8.70
2022-09-16T22:41:18.682Z,8.70
2022-09-16T22:43:47.537Z,8.70
2022-09-16T22:46:38.392Z,8.70
2022-09-16T22:49:05.285Z,8.70
2022-09-16T22:51:32.170Z,8.70
2022-09-16T22:53:58.898Z,8.70
2022-09-16T22:56:32.163Z,8.80
2022-09-16T22:59:04.391Z,8.80
2022-09-16T23:01:39.292Z,8.90
2022-09-16T23:04:07.884Z,8.90
2022-09-16T23:06:36.093Z,8.70
2022-09-16T23:09:04.150Z,8.80
2022-09-16T23:11:34.249Z,8.80
2022-09-16T23:14:01.455Z,8.70
2022-09-16T23:16:31.079Z,8.60
2022-09-16T23:19:00.061Z,8.60
2022-09-16T23:21:27.508Z,8.60
2022-09-16T23:23:56.690Z,8.50
2022-09-16T23:26:26.401Z,8.60
2022-09-16T23:28:54.975Z,8.60
2022-09-16T23:31:27.270Z,8.70
2022-09-16T23:33:54.576Z,8.60
2022-09-16T23:36:22.270Z,8.60
2022-09-16T23:38:49.208Z,8.70
2022-09-16T23:41:19.572Z,8.70
2022-09-16T23:43:48.136Z,8.80
2022-09-16T23:46:17.161Z,8.80
2022-09-16T23:48:44.197Z,8.70
2022-09-16T23:51:11.874Z,8.70
2022-09-16T23:53:39.175Z,8.50
2022-09-16T23:56:10.782Z,8.50
2022-09-16T23:58:38.683Z,8.60
